createdAt,value
2022-12-09T00:02:12.225Z,8.17
2022-12-09T00:04:39.658Z,8.37
2022-12-09T00:07:06.712Z,8.40
2022-12-09T00:09:33.579Z,7.80
2022-12-09T00:12:00.409Z,8.80
2022-12-09T00:14:29.071Z,8.83
2022-12-09T00:16:56.148Z,8.43
2022-12-09T00:19:23.026Z,9.10
2022-12-09T00:21:49.923Z,10.23
2022-12-09T00:24:16.784Z,9.80
2022-12-09T00:26:43.907Z,9.20
2022-12-09T00:29:11.331Z,9.60
2022-12-09T00:31:40.450Z,9.83
2022-12-09T00:34:10.911Z,10.90
2022-12-09T00:36:37.882Z,10.50
2022-12-09T00:39:04.889Z,10.00
2022-12-09T00:41:32.041Z,11.17
2022-12-09T00:43:59.371Z,10.87
2022-12-09T00:46:26.593Z,9.97
2022-12-09T00:48:54.893Z,10.43
2022-12-09T00:51:24.219Z,10.50
2022-12-09T00:53:55.952Z,9.73
2022-12-09T00:56:24.268Z,10.07
2022-12-09T00:58:51.119Z,9.63
2022-12-09T01:01:18.099Z,9.77
2022-12-09T01:03:45.453Z,9.83
2022-12-09T01:06:17.601Z,9.37
2022-12-09T01:08:45.864Z,9.80
2022-12-09T01:11:16.566Z,9.60
2022-12-09T01:13:43.836Z,8.10
2022-12-09T01:16:15.652Z,8.60
2022-12-09T01:18:42.817Z,8.90
2022-12-09T01:21:09.731Z,9.83
2022-12-09T01:23:38.369Z,8.33
2022-12-09T01:26:06.619Z,9.63
2022-12-09T01:28:34.784Z,9.37
2022-12-09T01:31:06.317Z,8.77
2022-12-09T01:33:33.588Z,8.77
2022-12-09T01:36:00.376Z,8.57
2022-12-09T01:38:27.206Z,9.83
2022-12-09T01:40:55.750Z,9.13
2022-12-09T01:43:22.697Z,9.97
2022-12-09T01:45:50.104Z,8.30
2022-12-09T01:48:20.547Z,8.93
2022-12-09T01:50:52.072Z,9.13
2022-12-09T01:53:21.887Z,9.17
2022-12-09T01:55:50.194Z,9.17
2022-12-09T01:58:19.823Z,8.00
2022-12-09T02:00:48.143Z,8.30
2022-12-09T02:03:15.555Z,7.83
2022-12-09T02:05:43.929Z,8.83
2022-12-09T02:08:13.244Z,8.77
2022-12-09T02:10:48.145Z,8.67
2022-12-09T02:13:26.893Z,8.97
2022-12-09T02:15:57.161Z,8.87
2022-12-09T02:18:29.337Z,9.47
2022-12-09T02:21:01.192Z,9.07
2022-12-09T02:23:35.688Z,8.53
2022-12-09T02:26:11.372Z,8.83
2022-12-09T02:29:05.675Z,8.40
2022-12-09T02:31:53.345Z,8.43
2022-12-09T02:34:22.831Z,8.50
2022-12-09T02:37:03.904Z,7.60
2022-12-09T02:39:36.774Z,8.40
2022-12-09T02:42:06.250Z,8.70
2022-12-09T02:44:33.996Z,8.00
2022-12-09T02:47:01.725Z,8.73
2022-12-09T02:49:32.093Z,8.77
2022-12-09T02:51:59.989Z,9.60
2022-12-09T02:54:29.410Z,9.43
2022-12-09T02:57:00.816Z,9.50
2022-12-09T02:59:27.828Z,9.00
2022-12-09T03:02:03.404Z,10.27
2022-12-09T03:04:32.449Z,10.30
2022-12-09T03:07:09.926Z,9.93
2022-12-09T03:09:40.782Z,9.70
2022-12-09T03:12:10.937Z,10.43
2022-12-09T03:14:41.911Z,9.53
2022-12-09T03:17:14.083Z,9.57
2022-12-09T03:19:46.223Z,9.70
2022-12-09T03:22:16.758Z,9.43
2022-12-09T03:24:49.860Z,9.77
2022-12-09T03:27:22.492Z,10.33
2022-12-09T03:29:51.000Z,8.60
2022-12-09T03:32:20.795Z,8.90
2022-12-09T03:34:52.158Z,10.07
2022-12-09T03:37:21.188Z,9.30
2022-12-09T03:39:49.507Z,9.07
2022-12-09T03:42:19.827Z,8.53
2022-12-09T03:44:51.106Z,8.93
2022-12-09T03:47:18.095Z,8.60
2022-12-09T03:49:45.307Z,8.73
2022-12-09T03:52:19.491Z,8.03
2022-12-09T03:54:49.716Z,8.83
2022-12-09T03:57:19.950Z,9.40
2022-12-09T03:59:51.574Z,8.10
2022-12-09T04:02:18.898Z,8.30
2022-12-09T04:04:46.005Z,8.47
2022-12-09T04:07:14.751Z,8.53
2022-12-09T04:09:42.130Z,8.27
2022-12-09T04:12:09.459Z,7.73
2022-12-09T04:14:36.613Z,7.77
2022-12-09T04:17:04.130Z,8.50
2022-12-09T04:19:31.357Z,8.00
2022-12-09T04:21:58.300Z,7.07
2022-12-09T04:24:26.814Z,8.40
2022-12-09T04:26:53.807Z,8.63
2022-12-09T04:29:20.655Z,8.37
2022-12-09T04:31:47.956Z,8.67
2022-12-09T04:34:15.006Z,9.13
2022-12-09T04:36:41.913Z,9.00
2022-12-09T04:39:08.958Z,8.43
2022-12-09T04:41:37.528Z,7.97
2022-12-09T04:44:05.635Z,8.33
2022-12-09T04:46:33.211Z,8.37
2022-12-09T04:49:00.566Z,7.83
2022-12-09T04:51:28.058Z,8.53
2022-12-09T04:53:55.389Z,7.60
2022-12-09T04:56:22.404Z,7.87
2022-12-09T04:58:51.088Z,8.47
2022-12-09T05:01:28.248Z,8.97
2022-12-09T05:03:57.785Z,8.70
2022-12-09T05:06:25.223Z,9.40
2022-12-09T05:08:52.732Z,9.37
2022-12-09T05:11:21.062Z,9.27
2022-12-09T05:13:50.312Z,10.33
2022-12-09T05:16:18.466Z,9.90
2022-12-09T05:18:47.240Z,10.30
2022-12-09T05:21:16.606Z,10.70
2022-12-09T05:23:44.422Z,10.07
2022-12-09T05:26:13.246Z,10.43
2022-12-09T05:28:40.966Z,11.23
2022-12-09T05:31:14.994Z,11.73
2022-12-09T05:33:42.426Z,10.83
2022-12-09T05:36:10.624Z,10.77
2022-12-09T05:38:37.727Z,10.67
2022-12-09T05:41:05.265Z,11.27
2022-12-09T05:43:32.868Z,11.23
2022-12-09T05:46:01.081Z,11.67
2022-12-09T05:48:30.362Z,11.77
2022-12-09T05:50:58.255Z,10.50
2022-12-09T05:53:25.352Z,10.77
2022-12-09T05:55:52.709Z,11.27
2022-12-09T05:58:20.043Z,11.07
2022-12-09T06:00:47.215Z,11.80
2022-12-09T06:03:14.888Z,11.30
2022-12-09T06:05:44.258Z,11.87
2022-12-09T06:08:11.379Z,12.43
2022-12-09T06:10:40.517Z,12.63
2022-12-09T06:13:07.870Z,12.73
2022-12-09T06:15:35.319Z,12.80
2022-12-09T06:18:02.951Z,13.23
2022-12-09T06:20:30.593Z,12.67
2022-12-09T06:22:58.926Z,12.50
2022-12-09T06:25:26.168Z,14.33
2022-12-09T06:27:54.059Z,13.17
2022-12-09T06:30:21.591Z,13.03
2022-12-09T06:32:49.025Z,13.40
2022-12-09T06:35:16.964Z,12.60
2022-12-09T06:37:44.243Z,13.73
2022-12-09T06:40:13.137Z,14.73
2022-12-09T06:42:40.168Z,13.60
2022-12-09T06:45:08.525Z,13.43
2022-12-09T06:47:36.075Z,13.80
2022-12-09T06:50:07.045Z,13.83
2022-12-09T06:52:35.186Z,14.47
2022-12-09T06:55:02.250Z,14.17
2022-12-09T06:57:30.670Z,14.47
2022-12-09T06:59:57.618Z,14.87
2022-12-09T07:02:25.789Z,14.17
2022-12-09T07:04:55.216Z,15.73
2022-12-09T07:07:23.318Z,14.93
2022-12-09T07:09:50.552Z,15.00
2022-12-09T07:12:18.477Z,15.07
2022-12-09T07:14:47.437Z,16.30
2022-12-09T07:17:16.715Z,16.77
2022-12-09T07:19:44.076Z,16.40
2022-12-09T07:22:12.077Z,17.10
2022-12-09T07:24:39.996Z,15.87
2022-12-09T07:27:11.971Z,15.87
2022-12-09T07:29:41.394Z,15.53
2022-12-09T07:32:10.835Z,15.77
2022-12-09T07:34:38.287Z,16.23
2022-12-09T07:37:05.863Z,14.97
2022-12-09T07:39:32.994Z,15.10
2022-12-09T07:42:00.239Z,14.93
2022-12-09T07:44:28.291Z,15.40
2022-12-09T07:46:56.026Z,15.63
2022-12-09T07:49:25.739Z,15.57
2022-12-09T07:51:53.003Z,15.80
2022-12-09T07:54:21.238Z,16.17
2022-12-09T07:56:48.802Z,16.50
2022-12-09T07:59:16.962Z,16.33
2022-12-09T08:01:44.819Z,17.10
2022-12-09T08:04:13.186Z,16.20
2022-12-09T08:06:41.869Z,15.70
2022-12-09T08:09:12.565Z,16.03
2022-12-09T08:11:40.328Z,16.10
2022-12-09T08:14:12.572Z,17.03
2022-12-09T08:16:40.925Z,16.23
2022-12-09T08:19:09.618Z,16.47
2022-12-09T08:21:37.726Z,15.90
2022-12-09T08:24:07.752Z,15.80
2022-12-09T08:26:37.517Z,16.20
2022-12-09T08:29:08.255Z,15.67
2022-12-09T08:31:40.535Z,16.13
2022-12-09T08:34:09.252Z,16.03
2022-12-09T08:36:37.100Z,14.57
2022-12-09T08:39:06.254Z,19.67
2022-12-09T08:41:38.473Z,15.33
2022-12-09T08:44:08.030Z,14.63
2022-12-09T08:46:37.111Z,15.17
2022-12-09T08:49:05.253Z,14.87
2022-12-09T08:51:33.279Z,13.63
2022-12-09T08:54:01.484Z,13.90
2022-12-09T08:56:30.076Z,13.80
2022-12-09T08:58:57.402Z,13.77
2022-12-09T09:01:27.025Z,13.57
2022-12-09T09:03:54.702Z,12.90
2022-12-09T09:06:22.173Z,14.57
2022-12-09T09:08:49.696Z,12.30
2022-12-09T09:11:20.623Z,13.10
2022-12-09T09:13:53.169Z,13.43
2022-12-09T09:16:22.671Z,12.97
2022-12-09T09:18:50.681Z,13.17
2022-12-09T09:21:20.369Z,12.00
2022-12-09T09:23:48.735Z,10.90
2022-12-09T09:26:17.880Z,11.00
2022-12-09T09:28:45.854Z,10.53
2022-12-09T09:31:17.561Z,11.37
2022-12-09T09:33:45.527Z,11.00
2022-12-09T09:36:15.669Z,11.27
2022-12-09T09:38:43.195Z,10.97
2022-12-09T09:41:20.467Z,10.83
2022-12-09T09:43:48.526Z,11.10
2022-12-09T09:46:24.568Z,10.97
2022-12-09T09:48:53.298Z,10.07
2022-12-09T09:51:21.937Z,10.60
2022-12-09T09:53:51.187Z,10.40
2022-12-09T09:56:26.891Z,10.27
2022-12-09T09:59:02.121Z,10.40
2022-12-09T10:01:35.009Z,10.47
2022-12-09T10:04:13.138Z,10.40
2022-12-09T10:06:47.708Z,11.40
2022-12-09T10:09:21.847Z,10.40
2022-12-09T10:12:02.027Z,10.03
2022-12-09T10:14:40.015Z,10.10
2022-12-09T10:17:21.477Z,11.07
2022-12-09T10:19:51.278Z,11.37
2022-12-09T10:22:23.055Z,10.90
2022-12-09T10:24:52.496Z,10.70
2022-12-09T10:27:29.795Z,10.93
2022-12-09T10:30:00.006Z,10.90
2022-12-09T10:32:30.915Z,11.53
2022-12-09T10:34:59.248Z,11.03
2022-12-09T10:37:29.919Z,10.97
2022-12-09T10:40:16.534Z,10.30
2022-12-09T10:43:05.646Z,9.53
2022-12-09T10:46:00.043Z,9.23
2022-12-09T10:48:33.164Z,9.43
2022-12-09T10:51:04.467Z,9.03
2022-12-09T10:53:33.877Z,9.13
2022-12-09T10:56:02.722Z,9.63
2022-12-09T10:58:31.812Z,8.30
2022-12-09T11:01:02.955Z,8.03
2022-12-09T11:03:34.643Z,9.07
2022-12-09T11:06:18.536Z,8.40
2022-12-09T11:08:52.519Z,9.47
2022-12-09T11:11:19.896Z,8.77
2022-12-09T11:13:47.657Z,7.80
2022-12-09T11:16:15.080Z,9.17
2022-12-09T11:18:46.525Z,9.67
2022-12-09T11:21:32.782Z,8.80
2022-12-09T11:24:03.649Z,8.80
2022-12-09T11:26:38.475Z,25.50
2022-12-09T11:29:14.083Z,10.43
2022-12-09T11:31:42.237Z,9.13
2022-12-09T11:34:20.805Z,9.43
2022-12-09T11:36:51.422Z,8.87
2022-12-09T11:39:25.769Z,9.83
2022-12-09T11:42:17.138Z,9.13
2022-12-09T11:44:53.920Z,9.27
2022-12-09T11:47:26.480Z,8.77
2022-12-09T11:49:57.346Z,8.73
2022-12-09T11:52:29.334Z,8.90
2022-12-09T11:55:19.984Z,8.57
2022-12-09T11:57:50.626Z,8.90
2022-12-09T12:00:20.501Z,7.90
2022-12-09T12:02:53.084Z,7.70
2022-12-09T12:05:26.621Z,6.60
2022-12-09T12:08:06.611Z,7.30
2022-12-09T12:10:37.176Z,7.17
2022-12-09T12:13:12.002Z,6.93
2022-12-09T12:15:48.336Z,7.57
2022-12-09T12:18:19.769Z,7.13
2022-12-09T12:21:19.008Z,7.30
2022-12-09T12:24:24.769Z,6.90
2022-12-09T12:27:03.768Z,6.97
2022-12-09T12:29:47.464Z,7.47
2022-12-09T12:33:08.815Z,6.90
2022-12-09T12:35:51.902Z,6.33
2022-12-09T12:38:27.053Z,6.00
2022-12-09T12:41:10.270Z,6.13
2022-12-09T12:44:11.677Z,5.90
2022-12-09T12:46:52.819Z,5.57
2022-12-09T12:49:36.742Z,5.67
2022-12-09T12:52:39.422Z,5.93
2022-12-09T12:55:17.212Z,6.90
2022-12-09T12:57:51.352Z,7.40
2022-12-09T13:00:22.130Z,6.67
2022-12-09T13:03:00.841Z,6.87
2022-12-09T13:05:36.268Z,6.30
2022-12-09T13:08:06.314Z,6.43
2022-12-09T13:10:39.474Z,7.73
2022-12-09T13:13:14.587Z,8.57
2022-12-09T13:15:45.216Z,9.27
2022-12-09T13:18:16.127Z,8.13
2022-12-09T13:20:46.901Z,7.60
2022-12-09T13:23:27.839Z,7.80
2022-12-09T13:26:09.245Z,7.57
2022-12-09T13:28:47.221Z,7.20
2022-12-09T13:31:18.039Z,15.73
2022-12-09T13:33:56.099Z,7.33
2022-12-09T13:36:36.044Z,6.93
2022-12-09T13:39:03.833Z,7.70
2022-12-09T13:42:04.124Z,7.57
2022-12-09T13:44:34.574Z,7.00
2022-12-09T13:47:25.536Z,6.87
2022-12-09T13:49:56.977Z,8.03
2022-12-09T13:52:48.239Z,6.83
2022-12-09T13:55:37.716Z,7.87
2022-12-09T13:58:21.253Z,6.40
2022-12-09T14:01:06.668Z,6.13
2022-12-09T14:03:37.417Z,6.33
2022-12-09T14:06:17.163Z,6.63
2022-12-09T14:08:49.274Z,6.27
2022-12-09T14:11:42.833Z,6.43
2022-12-09T14:14:51.452Z,6.23
2022-12-09T14:17:58.125Z,6.80
2022-12-09T14:20:29.296Z,7.00
2022-12-09T14:23:19.241Z,6.97
2022-12-09T14:26:00.823Z,7.73
2022-12-09T14:28:49.837Z,7.40
2022-12-09T14:31:56.673Z,7.47
2022-12-09T14:34:32.248Z,7.77
2022-12-09T14:37:21.590Z,8.00
2022-12-09T14:39:53.738Z,7.60
2022-12-09T14:42:33.151Z,7.07
2022-12-09T14:45:13.251Z,7.10
2022-12-09T14:47:45.552Z,7.13
2022-12-09T14:50:16.380Z,8.13
2022-12-09T14:52:51.970Z,8.27
2022-12-09T14:55:23.062Z,8.60
2022-12-09T14:57:51.984Z,7.87
2022-12-09T15:00:31.373Z,7.57
2022-12-09T15:05:56.066Z,7.50
2022-12-09T15:08:34.550Z,7.73
2022-12-09T15:11:06.896Z,7.13
2022-12-09T15:13:35.365Z,7.43
2022-12-09T15:16:02.503Z,7.07
2022-12-09T15:18:31.677Z,7.60
2022-12-09T15:21:01.475Z,7.80
2022-12-09T15:23:31.899Z,8.43
2022-12-09T15:26:03.391Z,7.47
2022-12-09T15:28:32.040Z,7.50
2022-12-09T15:31:01.043Z,7.80
2022-12-09T15:33:31.870Z,6.97
2022-12-09T15:36:02.322Z,6.83
2022-12-09T15:38:40.921Z,7.10
2022-12-09T15:41:27.943Z,6.77
2022-12-09T15:43:59.812Z,6.57
2022-12-09T15:46:27.784Z,7.37
2022-12-09T15:48:59.922Z,7.50
2022-12-09T15:51:27.802Z,6.80
2022-12-09T15:53:57.454Z,7.17
2022-12-09T15:56:27.562Z,8.00
2022-12-09T15:58:58.111Z,7.47
2022-12-09T16:01:28.555Z,7.40
2022-12-09T16:03:58.744Z,6.73
2022-12-09T16:06:28.415Z,7.33
2022-12-09T16:08:55.360Z,7.07
2022-12-09T16:11:36.099Z,7.03
2022-12-09T16:14:03.244Z,7.37
2022-12-09T16:16:35.853Z,7.50
2022-12-09T16:19:04.387Z,7.47
2022-12-09T16:21:33.838Z,7.43
2022-12-09T16:24:10.092Z,6.87
2022-12-09T16:26:39.171Z,7.47
2022-12-09T16:29:14.086Z,7.97
2022-12-09T16:31:41.201Z,7.77
2022-12-09T16:34:20.575Z,6.60
2022-12-09T16:36:54.512Z,7.30
2022-12-09T16:39:34.745Z,8.10
2022-12-09T16:42:03.178Z,7.33
2022-12-09T16:44:34.172Z,7.67
2022-12-09T16:47:13.094Z,7.57
2022-12-09T16:49:45.292Z,7.93
2022-12-09T16:52:14.805Z,7.80
2022-12-09T16:54:43.253Z,7.47
2022-12-09T16:57:13.439Z,6.97
2022-12-09T16:59:40.722Z,7.07
2022-12-09T17:02:20.703Z,6.23
2022-12-09T17:04:50.638Z,6.17
2022-12-09T17:07:17.526Z,6.47
2022-12-09T17:09:44.344Z,6.67
2022-12-09T17:12:11.449Z,6.10
2022-12-09T17:14:38.426Z,6.23
2022-12-09T17:17:05.439Z,6.03
2022-12-09T17:19:32.512Z,5.87
2022-12-09T17:22:00.759Z,6.00
2022-12-09T17:24:27.672Z,6.07
2022-12-09T17:26:54.571Z,5.50
2022-12-09T17:29:21.527Z,5.80
2022-12-09T17:31:50.286Z,6.13
2022-12-09T17:34:17.227Z,6.00
2022-12-09T17:36:44.150Z,5.57
2022-12-09T17:39:12.890Z,5.73
2022-12-09T17:41:39.761Z,6.17
2022-12-09T17:44:06.907Z,6.30
2022-12-09T17:46:34.221Z,6.40
2022-12-09T17:49:02.378Z,6.43
2022-12-09T17:51:34.032Z,6.30
2022-12-09T17:54:03.080Z,6.50
2022-12-09T17:56:31.869Z,6.33
2022-12-09T17:59:00.909Z,6.93
2022-12-09T18:01:27.884Z,6.70
2022-12-09T18:04:02.587Z,6.47
2022-12-09T18:06:33.949Z,6.13
2022-12-09T18:09:01.350Z,5.97
2022-12-09T18:11:28.281Z,6.27
2022-12-09T18:13:56.548Z,6.60
2022-12-09T18:16:23.601Z,7.13
2022-12-09T18:18:50.594Z,6.90
2022-12-09T18:21:19.920Z,6.83
2022-12-09T18:23:48.093Z,6.77
2022-12-09T18:26:17.296Z,7.40
2022-12-09T18:28:44.519Z,6.37
2022-12-09T18:31:15.087Z,6.80
2022-12-09T18:33:42.350Z,6.67
2022-12-09T18:36:11.453Z,6.63
2022-12-09T18:38:39.076Z,6.63
2022-12-09T18:41:10.799Z,6.90
2022-12-09T18:43:41.300Z,7.00
2022-12-09T18:46:12.446Z,6.87
2022-12-09T18:48:40.937Z,7.37
2022-12-09T18:51:14.756Z,7.77
2022-12-09T18:53:41.642Z,7.20
2022-12-09T18:56:08.872Z,7.00
2022-12-09T18:59:04.855Z,7.33
2022-12-09T19:01:25.543Z,7.23
2022-12-09T19:03:56.050Z,8.13
2022-12-09T19:06:24.713Z,8.33
2022-12-09T19:08:55.529Z,7.43
2022-12-09T19:11:26.194Z,7.53
2022-12-09T19:13:54.018Z,7.40
2022-12-09T19:16:21.534Z,7.27
2022-12-09T19:18:48.734Z,8.23
2022-12-09T19:21:18.738Z,8.77
2022-12-09T19:23:47.145Z,7.90
2022-12-09T19:26:15.511Z,8.07
2022-12-09T19:28:46.617Z,8.93
2022-12-09T19:31:15.605Z,8.70
2022-12-09T19:33:42.684Z,7.73
2022-12-09T19:36:10.845Z,7.83
2022-12-09T19:38:39.651Z,8.27
2022-12-09T19:41:07.173Z,9.40
2022-12-09T19:43:34.455Z,19.90
2022-12-09T19:46:06.396Z,18.87
2022-12-09T19:48:35.776Z,10.87
2022-12-09T19:51:04.512Z,13.03
2022-12-09T19:53:31.936Z,10.60
2022-12-09T19:56:01.857Z,10.10
2022-12-09T19:58:29.539Z,11.07
2022-12-09T20:00:56.915Z,8.63
2022-12-09T20:03:24.194Z,10.50
2022-12-09T20:05:52.997Z,10.17
2022-12-09T20:08:20.429Z,10.47
2022-12-09T20:10:48.150Z,11.80
2022-12-09T20:13:16.585Z,10.03
2022-12-09T20:15:43.620Z,10.80
2022-12-09T20:18:11.063Z,11.17
2022-12-09T20:20:38.194Z,10.80
2022-12-09T20:23:05.253Z,9.80
2022-12-09T20:25:34.188Z,10.40
2022-12-09T20:28:01.031Z,11.27
2022-12-09T20:30:29.896Z,12.20
2022-12-09T20:32:57.063Z,10.53
2022-12-09T20:35:24.174Z,10.07
2022-12-09T20:37:51.150Z,10.43
2022-12-09T20:40:18.371Z,10.90
2022-12-09T20:42:45.284Z,10.30
2022-12-09T20:45:12.165Z,10.50
2022-12-09T20:47:40.369Z,9.37
2022-12-09T20:50:08.599Z,9.90
2022-12-09T20:52:35.681Z,9.63
2022-12-09T20:55:02.694Z,8.63
2022-12-09T20:57:29.608Z,9.60
2022-12-09T20:59:59.518Z,9.37
2022-12-09T21:02:26.437Z,8.87
2022-12-09T21:04:54.609Z,9.00
2022-12-09T21:07:21.726Z,9.30
2022-12-09T21:09:48.742Z,8.67
2022-12-09T21:12:15.737Z,8.73
2022-12-09T21:14:42.595Z,7.97
2022-12-09T21:17:09.460Z,9.07
2022-12-09T21:19:36.806Z,9.20
2022-12-09T21:22:05.406Z,8.60
2022-12-09T21:24:33.116Z,9.43
2022-12-09T21:27:00.931Z,8.80
2022-12-09T21:29:31.921Z,8.47
2022-12-09T21:32:00.405Z,8.50
2022-12-09T21:34:27.482Z,8.47
2022-12-09T21:36:54.395Z,9.10
2022-12-09T21:39:22.586Z,8.47
2022-12-09T21:41:49.485Z,8.43
2022-12-09T21:44:18.420Z,8.10
2022-12-09T21:46:46.030Z,8.47
2022-12-09T21:49:13.366Z,9.33
2022-12-09T21:51:40.580Z,9.40
2022-12-09T21:54:07.635Z,9.87
2022-12-09T21:56:36.729Z,9.43
2022-12-09T21:59:05.571Z,9.60
2022-12-09T22:01:34.398Z,11.43
2022-12-09T22:04:03.233Z,10.57
2022-12-09T22:06:31.058Z,10.87
2022-12-09T22:08:59.414Z,10.30
2022-12-09T22:11:28.767Z,10.23
2022-12-09T22:13:58.653Z,10.90
2022-12-09T22:16:28.587Z,11.10
2022-12-09T22:18:57.716Z,10.70
2022-12-09T22:21:27.430Z,10.67
2022-12-09T22:23:55.723Z,10.33
2022-12-09T22:26:23.800Z,10.73
2022-12-09T22:28:51.361Z,11.80
2022-12-09T22:31:21.771Z,10.60
2022-12-09T22:33:49.480Z,10.03
2022-12-09T22:36:16.928Z,10.20
2022-12-09T22:38:44.021Z,10.83
2022-12-09T22:41:13.389Z,12.13
2022-12-09T22:43:41.321Z,11.40
2022-12-09T22:46:09.904Z,11.80
2022-12-09T22:48:38.577Z,12.27
2022-12-09T22:51:07.151Z,11.20
2022-12-09T22:53:36.737Z,10.83
2022-12-09T22:56:04.201Z,11.40
2022-12-09T22:58:31.355Z,12.40
2022-12-09T23:00:58.152Z,11.73
2022-12-09T23:03:25.288Z,9.87
2022-12-09T23:05:54.427Z,11.40
2022-12-09T23:08:22.401Z,11.33
2022-12-09T23:10:49.377Z,10.57
2022-12-09T23:13:16.269Z,10.83
2022-12-09T23:15:43.141Z,11.27
2022-12-09T23:18:10.044Z,13.70
2022-12-09T23:20:36.923Z,11.87
2022-12-09T23:23:05.159Z,11.57
2022-12-09T23:25:33.779Z,11.60
2022-12-09T23:28:00.600Z,11.23
2022-12-09T23:30:27.485Z,11.77
2022-12-09T23:32:54.526Z,11.37
2022-12-09T23:35:21.377Z,12.13
2022-12-09T23:37:48.243Z,11.27
2022-12-09T23:40:16.532Z,11.80
2022-12-09T23:42:43.313Z,12.60
2022-12-09T23:45:10.805Z,11.57
2022-12-09T23:47:37.752Z,12.67
2022-12-09T23:50:05.452Z,11.50
2022-12-09T23:52:37.677Z,12.83
2022-12-09T23:55:04.978Z,12.07
2022-12-09T23:57:33.101Z,11.77
